sensor_id;sensor_type;location;lat;lon;timestamp;pressure;altitude;pressure_sealevel;temperature;humidity
33506;BME280;19843;51.040;13.782;2023-05-12T00:00:12;100286.41;;;15.10;68.57
33506;BME280;19843;51.040;13.782;2023-05-12T00:02:40;100288.50;;;15.17;68.30
33506;BME280;19843;51.040;13.782;2023-05-12T00:05:08;100291.34;;;15.17;67.82
33506;BME280;19843;51.040;13.782;2023-05-12T00:07:35;100278.88;;;15.18;68.20
33506;BME280;19843;51.040;13.782;2023-05-12T00:10:03;100297.69;;;15.14;68.46
33506;BME280;19843;51.040;13.782;2023-05-12T00:12:32;100296.88;;;15.13;69.01
33506;BME280;19843;51.040;13.782;2023-05-12T00:15:00;100291.63;;;15.11;68.83
33506;BME280;19843;51.040;13.782;2023-05-12T00:17:27;100295.81;;;14.98;69.69
33506;BME280;19843;51.040;13.782;2023-05-12T00:19:55;100296.72;;;14.83;69.74
33506;BME280;19843;51.040;13.782;2023-05-12T00:22:22;100302.47;;;14.90;70.21
33506;BME280;19843;51.040;13.782;2023-05-12T00:24:51;100299.44;;;14.99;70.08
33506;BME280;19843;51.040;13.782;2023-05-12T00:27:19;100293.66;;;14.49;72.80
33506;BME280;19843;51.040;13.782;2023-05-12T00:29:48;100288.75;;;14.27;72.76
33506;BME280;19843;51.040;13.782;2023-05-12T00:32:15;100291.66;;;14.69;70.74
33506;BME280;19843;51.040;13.782;2023-05-12T00:34:42;100290.63;;;14.58;71.49
33506;BME280;19843;51.040;13.782;2023-05-12T00:37:10;100285.72;;;14.74;70.90
33506;BME280;19843;51.040;13.782;2023-05-12T00:39:37;100290.47;;;14.51;72.72
33506;BME280;19843;51.040;13.782;2023-05-12T00:42:05;100290.56;;;14.54;70.69
33506;BME280;19843;51.040;13.782;2023-05-12T00:44:32;100295.88;;;14.59;71.42
33506;BME280;19843;51.040;13.782;2023-05-12T00:47:02;100302.72;;;14.81;69.95
33506;BME280;19843;51.040;13.782;2023-05-12T00:49:30;100300.44;;;14.87;69.22
33506;BME280;19843;51.040;13.782;2023-05-12T00:51:58;100302.16;;;14.95;70.86
33506;BME280;19843;51.040;13.782;2023-05-12T00:54:25;100296.38;;;14.65;71.78
33506;BME280;19843;51.040;13.782;2023-05-12T00:56:53;100303.25;;;14.68;72.25
33506;BME280;19843;51.040;13.782;2023-05-12T00:59:20;100295.41;;;14.77;72.08
33506;BME280;19843;51.040;13.782;2023-05-12T01:01:48;100296.66;;;14.79;72.57
33506;BME280;19843;51.040;13.782;2023-05-12T01:04:17;100297.47;;;14.80;73.31
33506;BME280;19843;51.040;13.782;2023-05-12T01:06:49;100296.72;;;14.83;73.32
33506;BME280;19843;51.040;13.782;2023-05-12T01:09:19;100303.25;;;14.87;72.19
33506;BME280;19843;51.040;13.782;2023-05-12T01:11:47;100299.75;;;14.94;71.10
33506;BME280;19843;51.040;13.782;2023-05-12T01:14:14;100291.53;;;14.85;72.20
33506;BME280;19843;51.040;13.782;2023-05-12T01:16:49;100296.28;;;14.81;73.06
33506;BME280;19843;51.040;13.782;2023-05-12T01:19:37;100297.22;;;14.89;72.69
33506;BME280;19843;51.040;13.782;2023-05-12T01:22:06;100298.97;;;14.74;72.19
33506;BME280;19843;51.040;13.782;2023-05-12T01:24:43;100293.91;;;14.83;72.25
33506;BME280;19843;51.040;13.782;2023-05-12T01:27:13;100305.25;;;14.87;71.96
33506;BME280;19843;51.040;13.782;2023-05-12T01:29:42;100293.28;;;14.51;72.99
33506;BME280;19843;51.040;13.782;2023-05-12T01:32:11;100302.22;;;14.56;72.85
33506;BME280;19843;51.040;13.782;2023-05-12T01:34:39;100298.06;;;14.70;71.99
33506;BME280;19843;51.040;13.782;2023-05-12T01:37:07;100296.56;;;14.76;71.88
33506;BME280;19843;51.040;13.782;2023-05-12T01:39:36;100299.38;;;14.76;72.81
33506;BME280;19843;51.040;13.782;2023-05-12T01:42:04;100307.91;;;14.79;72.20
33506;BME280;19843;51.040;13.782;2023-05-12T01:44:33;100307.41;;;14.54;72.25
33506;BME280;19843;51.040;13.782;2023-05-12T01:47:00;100306.06;;;14.68;71.04
33506;BME280;19843;51.040;13.782;2023-05-12T01:49:28;100302.16;;;14.72;70.39
33506;BME280;19843;51.040;13.782;2023-05-12T01:51:56;100303.78;;;14.73;70.35
33506;BME280;19843;51.040;13.782;2023-05-12T01:54:23;100305.59;;;14.46;72.13
33506;BME280;19843;51.040;13.782;2023-05-12T01:56:50;100312.50;;;14.49;71.29
33506;BME280;19843;51.040;13.782;2023-05-12T01:59:18;100306.69;;;14.57;71.85
33506;BME280;19843;51.040;13.782;2023-05-12T02:01:46;100316.63;;;14.55;71.09
33506;BME280;19843;51.040;13.782;2023-05-12T02:04:14;100310.78;;;14.44;71.73
33506;BME280;19843;51.040;13.782;2023-05-12T02:06:42;100311.41;;;14.53;72.91
33506;BME280;19843;51.040;13.782;2023-05-12T02:09:09;100309.19;;;14.63;71.48
33506;BME280;19843;51.040;13.782;2023-05-12T02:11:36;100312.66;;;14.56;71.52
33506;BME280;19843;51.040;13.782;2023-05-12T02:14:04;100318.19;;;14.52;71.57
33506;BME280;19843;51.040;13.782;2023-05-12T02:16:31;100313.84;;;14.55;71.91
33506;BME280;19843;51.040;13.782;2023-05-12T02:19:00;100312.72;;;14.59;72.36
33506;BME280;19843;51.040;13.782;2023-05-12T02:21:28;100318.09;;;14.29;71.91
33506;BME280;19843;51.040;13.782;2023-05-12T02:23:56;100320.13;;;14.32;72.15
33506;BME280;19843;51.040;13.782;2023-05-12T02:26:23;100322.34;;;14.43;72.67
33506;BME280;19843;51.040;13.782;2023-05-12T02:28:51;100322.44;;;14.27;72.41
33506;BME280;19843;51.040;13.782;2023-05-12T02:31:18;100323.00;;;14.17;72.43
33506;BME280;19843;51.040;13.782;2023-05-12T02:33:46;100323.81;;;14.17;72.83
33506;BME280;19843;51.040;13.782;2023-05-12T02:36:16;100321.31;;;14.31;72.68
33506;BME280;19843;51.040;13.782;2023-05-12T02:38:43;100314.34;;;14.06;73.53
33506;BME280;19843;51.040;13.782;2023-05-12T02:41:11;100320.88;;;14.10;73.25
33506;BME280;19843;51.040;13.782;2023-05-12T02:43:38;100321.06;;;14.01;74.46
33506;BME280;19843;51.040;13.782;2023-05-12T02:46:06;100325.91;;;14.20;74.05
33506;BME280;19843;51.040;13.782;2023-05-12T02:48:33;100315.09;;;14.22;74.86
33506;BME280;19843;51.040;13.782;2023-05-12T02:51:01;100322.72;;;14.22;73.95
33506;BME280;19843;51.040;13.782;2023-05-12T02:53:29;100323.72;;;14.14;73.42
33506;BME280;19843;51.040;13.782;2023-05-12T02:55:57;100312.44;;;14.10;73.13
33506;BME280;19843;51.040;13.782;2023-05-12T02:58:24;100311.41;;;13.83;73.38
33506;BME280;19843;51.040;13.782;2023-05-12T03:00:52;100312.69;;;14.05;73.78
33506;BME280;19843;51.040;13.782;2023-05-12T03:03:34;100308.75;;;14.06;74.55
33506;BME280;19843;51.040;13.782;2023-05-12T03:06:03;100323.13;;;14.04;75.42
33506;BME280;19843;51.040;13.782;2023-05-12T03:08:32;100316.28;;;13.86;75.07
33506;BME280;19843;51.040;13.782;2023-05-12T03:11:00;100324.00;;;13.73;76.31
33506;BME280;19843;51.040;13.782;2023-05-12T03:13:27;100315.94;;;13.88;76.15
33506;BME280;19843;51.040;13.782;2023-05-12T03:15:54;100318.84;;;13.91;76.59
33506;BME280;19843;51.040;13.782;2023-05-12T03:18:26;100310.41;;;13.75;77.16
33506;BME280;19843;51.040;13.782;2023-05-12T03:20:54;100319.03;;;13.82;77.35
33506;BME280;19843;51.040;13.782;2023-05-12T03:23:21;100316.56;;;13.81;77.50
33506;BME280;19843;51.040;13.782;2023-05-12T03:25:50;100319.03;;;13.82;77.96
33506;BME280;19843;51.040;13.782;2023-05-12T03:28:17;100316.56;;;13.81;77.70
33506;BME280;19843;51.040;13.782;2023-05-12T03:30:45;100321.53;;;13.88;77.72
33506;BME280;19843;51.040;13.782;2023-05-12T03:33:12;100320.44;;;13.92;76.76
33506;BME280;19843;51.040;13.782;2023-05-12T03:35:40;100312.84;;;13.93;77.20
33506;BME280;19843;51.040;13.782;2023-05-12T03:38:07;100324.44;;;13.91;77.59
33506;BME280;19843;51.040;13.782;2023-05-12T03:40:35;100324.88;;;13.93;77.62
33506;BME280;19843;51.040;13.782;2023-05-12T03:43:03;100333.50;;;13.84;77.71
33506;BME280;19843;51.040;13.782;2023-05-12T03:45:31;100335.75;;;13.79;77.82
33506;BME280;19843;51.040;13.782;2023-05-12T03:47:58;100337.03;;;13.81;78.80
33506;BME280;19843;51.040;13.782;2023-05-12T03:50:26;100333.22;;;13.90;79.33
33506;BME280;19843;51.040;13.782;2023-05-12T03:52:54;100327.88;;;13.84;78.72
33506;BME280;19843;51.040;13.782;2023-05-12T03:55:22;100324.91;;;13.77;79.41
33506;BME280;19843;51.040;13.782;2023-05-12T03:57:49;100331.97;;;13.87;79.21
33506;BME280;19843;51.040;13.782;2023-05-12T04:00:19;100331.22;;;13.90;80.04
33506;BME280;19843;51.040;13.782;2023-05-12T04:02:46;100330.06;;;13.91;79.89
33506;BME280;19843;51.040;13.782;2023-05-12T04:05:14;100327.03;;;14.00;79.96
33506;BME280;19843;51.040;13.782;2023-05-12T04:07:42;100336.72;;;14.02;79.16
33506;BME280;19843;51.040;13.782;2023-05-12T04:10:09;100336.53;;;14.11;78.51
33506;BME280;19843;51.040;13.782;2023-05-12T04:12:36;100338.53;;;14.11;79.14
33506;BME280;19843;51.040;13.782;2023-05-12T04:15:05;100336.75;;;14.22;77.94
33506;BME280;19843;51.040;13.782;2023-05-12T04:17:34;100339.56;;;14.22;77.14
33506;BME280;19843;51.040;13.782;2023-05-12T04:20:02;100336.47;;;14.27;78.05
33506;BME280;19843;51.040;13.782;2023-05-12T04:22:29;100342.59;;;14.32;78.07
33506;BME280;19843;51.040;13.782;2023-05-12T04:24:57;100345.31;;;14.29;77.37
33506;BME280;19843;51.040;13.782;2023-05-12T04:27:24;100339.03;;;14.51;75.44
33506;BME280;19843;51.040;13.782;2023-05-12T04:29:52;100338.72;;;14.56;74.82
33506;BME280;19843;51.040;13.782;2023-05-12T04:32:19;100338.59;;;14.69;74.25
33506;BME280;19843;51.040;13.782;2023-05-12T04:34:48;100347.75;;;14.85;73.64
33506;BME280;19843;51.040;13.782;2023-05-12T04:37:16;100338.84;;;15.02;72.84
33506;BME280;19843;51.040;13.782;2023-05-12T04:39:44;100351.56;;;15.16;70.94
33506;BME280;19843;51.040;13.782;2023-05-12T04:42:11;100352.75;;;15.60;68.81
33506;BME280;19843;51.040;13.782;2023-05-12T04:44:38;100351.06;;;15.56;69.02
33506;BME280;19843;51.040;13.782;2023-05-12T04:47:06;100357.78;;;15.71;68.67
33506;BME280;19843;51.040;13.782;2023-05-12T04:49:33;100363.19;;;15.37;69.62
33506;BME280;19843;51.040;13.782;2023-05-12T04:52:02;100357.09;;;15.54;68.67
33506;BME280;19843;51.040;13.782;2023-05-12T04:54:31;100356.38;;;15.61;67.99
33506;BME280;19843;51.040;13.782;2023-05-12T04:56:58;100358.06;;;15.88;67.21
33506;BME280;19843;51.040;13.782;2023-05-12T04:59:25;100349.56;;;15.85;66.84
33506;BME280;19843;51.040;13.782;2023-05-12T05:01:53;100350.69;;;15.80;66.29
33506;BME280;19843;51.040;13.782;2023-05-12T05:04:21;100345.19;;;16.14;65.19
33506;BME280;19843;51.040;13.782;2023-05-12T05:06:48;100361.66;;;16.12;65.02
33506;BME280;19843;51.040;13.782;2023-05-12T05:09:17;100352.00;;;16.13;64.63
33506;BME280;19843;51.040;13.782;2023-05-12T05:11:45;100349.94;;;16.67;62.59
33506;BME280;19843;51.040;13.782;2023-05-12T05:14:13;100357.72;;;16.17;63.56
33506;BME280;19843;51.040;13.782;2023-05-12T05:16:40;100354.28;;;16.60;62.98
33506;BME280;19843;51.040;13.782;2023-05-12T05:19:08;100356.34;;;17.31;60.21
33506;BME280;19843;51.040;13.782;2023-05-12T05:21:47;100359.31;;;17.08;60.42
33506;BME280;19843;51.040;13.782;2023-05-12T05:24:21;100363.13;;;17.67;58.99
33506;BME280;19843;51.040;13.782;2023-05-12T05:26:48;100351.19;;;17.84;56.90
33506;BME280;19843;51.040;13.782;2023-05-12T05:29:16;100360.06;;;17.83;56.44
33506;BME280;19843;51.040;13.782;2023-05-12T05:31:43;100367.63;;;18.27;54.36
33506;BME280;19843;51.040;13.782;2023-05-12T05:34:11;100355.97;;;18.28;53.40
33506;BME280;19843;51.040;13.782;2023-05-12T05:36:38;100360.66;;;18.06;52.97
33506;BME280;19843;51.040;13.782;2023-05-12T05:39:06;100361.31;;;17.89;53.87
33506;BME280;19843;51.040;13.782;2023-05-12T05:41:36;100364.38;;;16.92;56.39
33506;BME280;19843;51.040;13.782;2023-05-12T05:44:04;100356.13;;;17.09;55.83
33506;BME280;19843;51.040;13.782;2023-05-12T05:46:32;100351.34;;;16.80;57.67
33506;BME280;19843;51.040;13.782;2023-05-12T05:48:59;100360.31;;;17.67;55.52
33506;BME280;19843;51.040;13.782;2023-05-12T05:51:27;100367.88;;;18.00;54.49
33506;BME280;19843;51.040;13.782;2023-05-12T05:53:54;100369.25;;;18.24;54.43
33506;BME280;19843;51.040;13.782;2023-05-12T05:56:21;100370.72;;;18.04;53.09
33506;BME280;19843;51.040;13.782;2023-05-12T05:58:50;100368.13;;;18.39;53.36
33506;BME280;19843;51.040;13.782;2023-05-12T06:01:18;100373.28;;;18.27;52.71
33506;BME280;19843;51.040;13.782;2023-05-12T06:03:45;100374.81;;;18.10;54.13
33506;BME280;19843;51.040;13.782;2023-05-12T06:06:13;100380.81;;;18.08;53.45
33506;BME280;19843;51.040;13.782;2023-05-12T06:08:41;100375.06;;;17.90;54.10
33506;BME280;19843;51.040;13.782;2023-05-12T06:11:08;100378.19;;;18.37;52.95
33506;BME280;19843;51.040;13.782;2023-05-12T06:13:35;100385.09;;;18.39;53.28
33506;BME280;19843;51.040;13.782;2023-05-12T06:16:04;100374.44;;;18.84;52.67
33506;BME280;19843;51.040;13.782;2023-05-12T06:18:32;100379.78;;;19.07;52.01
33506;BME280;19843;51.040;13.782;2023-05-12T06:21:03;100379.84;;;19.29;50.40
33506;BME280;19843;51.040;13.782;2023-05-12T06:23:31;100374.94;;;19.11;49.97
33506;BME280;19843;51.040;13.782;2023-05-12T06:25:59;100384.31;;;19.40;48.84
33506;BME280;19843;51.040;13.782;2023-05-12T06:28:26;100389.59;;;19.56;48.46
33506;BME280;19843;51.040;13.782;2023-05-12T06:30:54;100387.84;;;19.05;50.13
33506;BME280;19843;51.040;13.782;2023-05-12T06:33:22;100386.28;;;19.22;49.77
33506;BME280;19843;51.040;13.782;2023-05-12T06:35:50;100394.06;;;19.64;49.41
33506;BME280;19843;51.040;13.782;2023-05-12T06:38:17;100396.94;;;19.61;48.52
33506;BME280;19843;51.040;13.782;2023-05-12T06:40:45;100382.72;;;18.49;52.48
33506;BME280;19843;51.040;13.782;2023-05-12T06:43:12;100391.31;;;18.66;51.15
33506;BME280;19843;51.040;13.782;2023-05-12T06:45:40;100391.91;;;19.11;49.39
33506;BME280;19843;51.040;13.782;2023-05-12T06:48:07;100388.78;;;19.59;48.32
33506;BME280;19843;51.040;13.782;2023-05-12T06:50:36;100388.78;;;19.56;48.81
33506;BME280;19843;51.040;13.782;2023-05-12T06:53:04;100388.03;;;20.02;47.71
33506;BME280;19843;51.040;13.782;2023-05-12T06:55:33;100388.53;;;18.74;48.67
33506;BME280;19843;51.040;13.782;2023-05-12T06:58:01;100385.47;;;19.14;48.58
33506;BME280;19843;51.040;13.782;2023-05-12T07:00:28;100389.13;;;19.18;48.79
33506;BME280;19843;51.040;13.782;2023-05-12T07:02:55;100387.22;;;20.01;48.29
33506;BME280;19843;51.040;13.782;2023-05-12T07:05:23;100385.19;;;20.12;46.57
33506;BME280;19843;51.040;13.782;2023-05-12T07:07:52;100390.41;;;20.39;46.71
33506;BME280;19843;51.040;13.782;2023-05-12T07:10:19;100386.31;;;20.76;46.47
33506;BME280;19843;51.040;13.782;2023-05-12T07:12:47;100378.72;;;19.98;46.65
33506;BME280;19843;51.040;13.782;2023-05-12T07:15:14;100376.25;;;20.42;46.10
33506;BME280;19843;51.040;13.782;2023-05-12T07:17:42;100383.97;;;19.92;45.81
33506;BME280;19843;51.040;13.782;2023-05-12T07:20:10;100375.09;;;19.90;46.52
33506;BME280;19843;51.040;13.782;2023-05-12T07:22:38;100375.00;;;20.58;45.74
33506;BME280;19843;51.040;13.782;2023-05-12T07:25:07;100373.41;;;19.39;46.62
33506;BME280;19843;51.040;13.782;2023-05-12T07:27:35;100371.78;;;19.45;47.28
33506;BME280;19843;51.040;13.782;2023-05-12T07:30:03;100373.84;;;19.69;47.42
33506;BME280;19843;51.040;13.782;2023-05-12T07:32:31;100371.81;;;20.16;45.29
33506;BME280;19843;51.040;13.782;2023-05-12T07:34:58;100381.47;;;20.58;45.84
33506;BME280;19843;51.040;13.782;2023-05-12T07:37:26;100370.56;;;20.32;45.20
33506;BME280;19843;51.040;13.782;2023-05-12T07:39:53;100389.53;;;20.74;45.29
33506;BME280;19843;51.040;13.782;2023-05-12T07:42:25;100374.63;;;21.43;45.29
33506;BME280;19843;51.040;13.782;2023-05-12T07:44:53;100373.84;;;21.36;43.41
33506;BME280;19843;51.040;13.782;2023-05-12T07:47:20;100369.91;;;21.78;41.92
33506;BME280;19843;51.040;13.782;2023-05-12T07:49:47;100368.59;;;21.90;42.32
33506;BME280;19843;51.040;13.782;2023-05-12T07:52:15;100377.16;;;21.86;43.00
33506;BME280;19843;51.040;13.782;2023-05-12T07:54:42;100369.63;;;22.14;42.00
33506;BME280;19843;51.040;13.782;2023-05-12T07:57:10;100375.34;;;22.52;41.42
33506;BME280;19843;51.040;13.782;2023-05-12T07:59:38;100373.38;;;22.45;38.60
33506;BME280;19843;51.040;13.782;2023-05-12T08:02:06;100367.50;;;22.59;38.34
33506;BME280;19843;51.040;13.782;2023-05-12T08:04:33;100371.38;;;22.42;37.89
33506;BME280;19843;51.040;13.782;2023-05-12T08:07:01;100365.94;;;22.92;38.48
33506;BME280;19843;51.040;13.782;2023-05-12T08:09:28;100366.31;;;21.70;39.58
33506;BME280;19843;51.040;13.782;2023-05-12T08:11:56;100369.28;;;21.56;39.53
33506;BME280;19843;51.040;13.782;2023-05-12T08:14:23;100375.53;;;22.34;39.57
33506;BME280;19843;51.040;13.782;2023-05-12T08:16:52;100367.56;;;22.18;39.23
33506;BME280;19843;51.040;13.782;2023-05-12T08:19:19;100367.34;;;22.39;nan
33506;BME280;19843;51.040;13.782;2023-05-12T08:21:50;100369.84;;;22.68;40.14
33506;BME280;19843;51.040;13.782;2023-05-12T08:24:18;100371.75;;;22.44;40.29
33506;BME280;19843;51.040;13.782;2023-05-12T08:26:47;100365.19;;;22.85;39.07
33506;BME280;19843;51.040;13.782;2023-05-12T08:29:14;100366.28;;;22.98;38.72
33506;BME280;19843;51.040;13.782;2023-05-12T08:31:42;100362.00;;;23.13;37.75
33506;BME280;19843;51.040;13.782;2023-05-12T08:34:11;100364.72;;;22.56;38.06
33506;BME280;19843;51.040;13.782;2023-05-12T08:36:39;100373.44;;;22.75;38.15
33506;BME280;19843;51.040;13.782;2023-05-12T08:39:06;100373.53;;;23.03;38.17
33506;BME280;19843;51.040;13.782;2023-05-12T08:41:43;100373.00;;;22.77;39.92
33506;BME280;19843;51.040;13.782;2023-05-12T08:44:11;100380.00;;;22.31;39.92
33506;BME280;19843;51.040;13.782;2023-05-12T08:46:39;100376.13;;;22.07;40.17
33506;BME280;19843;51.040;13.782;2023-05-12T08:49:09;100375.72;;;22.54;39.67
33506;BME280;19843;51.040;13.782;2023-05-12T08:51:43;100374.00;;;22.97;38.20
33506;BME280;19843;51.040;13.782;2023-05-12T08:54:22;100374.81;;;23.56;37.96
33506;BME280;19843;51.040;13.782;2023-05-12T08:56:51;100386.34;;;23.75;38.01
33506;BME280;19843;51.040;13.782;2023-05-12T08:59:23;100375.81;;;22.81;38.21
33506;BME280;19843;51.040;13.782;2023-05-12T09:01:51;100387.91;;;22.09;37.03
33506;BME280;19843;51.040;13.782;2023-05-12T09:04:21;100374.53;;;22.89;37.30
33506;BME280;19843;51.040;13.782;2023-05-12T09:06:50;100380.22;;;22.89;36.32
33506;BME280;19843;51.040;13.782;2023-05-12T09:09:22;100374.00;;;22.97;36.25
33506;BME280;19843;51.040;13.782;2023-05-12T09:11:52;100378.34;;;23.63;35.42
33506;BME280;19843;51.040;13.782;2023-05-12T09:14:24;100375.00;;;22.80;36.33
33506;BME280;19843;51.040;13.782;2023-05-12T09:16:55;100378.19;;;22.89;35.99
33506;BME280;19843;51.040;13.782;2023-05-12T09:19:24;100384.56;;;22.97;36.50
33506;BME280;19843;51.040;13.782;2023-05-12T09:21:54;100386.47;;;21.90;37.48
33506;BME280;19843;51.040;13.782;2023-05-12T09:24:32;100379.16;;;23.37;35.98
33506;BME280;19843;51.040;13.782;2023-05-12T09:27:00;100389.56;;;22.86;35.70
33506;BME280;19843;51.040;13.782;2023-05-12T09:29:29;100386.56;;;23.31;35.16
33506;BME280;19843;51.040;13.782;2023-05-12T09:32:07;100375.31;;;22.10;35.18
33506;BME280;19843;51.040;13.782;2023-05-12T09:34:35;100385.38;;;22.97;36.04
33506;BME280;19843;51.040;13.782;2023-05-12T09:37:07;100373.34;;;23.98;34.26
33506;BME280;19843;51.040;13.782;2023-05-12T09:39:34;100384.69;;;23.47;34.44
33506;BME280;19843;51.040;13.782;2023-05-12T09:42:02;100375.03;;;23.41;33.90
33506;BME280;19843;51.040;13.782;2023-05-12T09:44:30;100373.75;;;22.47;33.75
33506;BME280;19843;51.040;13.782;2023-05-12T09:47:04;100370.16;;;22.77;33.70
33506;BME280;19843;51.040;13.782;2023-05-12T09:49:32;100365.34;;;23.35;33.20
33506;BME280;19843;51.040;13.782;2023-05-12T09:51:59;100380.22;;;22.85;34.46
33506;BME280;19843;51.040;13.782;2023-05-12T09:54:29;100373.00;;;23.42;34.04
33506;BME280;19843;51.040;13.782;2023-05-12T09:56:58;100376.28;;;23.67;32.63
33506;BME280;19843;51.040;13.782;2023-05-12T09:59:29;100377.41;;;23.46;34.18
33506;BME280;19843;51.040;13.782;2023-05-12T10:01:59;100368.13;;;23.69;31.21
33506;BME280;19843;51.040;13.782;2023-05-12T10:04:29;100369.75;;;23.94;30.76
33506;BME280;19843;51.040;13.782;2023-05-12T10:06:58;100376.84;;;24.72;31.72
33506;BME280;19843;51.040;13.782;2023-05-12T10:09:31;100376.06;;;24.52;31.01
33506;BME280;19843;51.040;13.782;2023-05-12T10:12:01;100371.09;;;24.33;31.24
33506;BME280;19843;51.040;13.782;2023-05-12T10:14:30;100378.56;;;23.49;31.95
33506;BME280;19843;51.040;13.782;2023-05-12T10:16:58;100365.25;;;24.16;33.58
33506;BME280;19843;51.040;13.782;2023-05-12T10:19:27;100359.06;;;25.93;29.94
33506;BME280;19843;51.040;13.782;2023-05-12T10:21:56;100368.66;;;25.14;32.06
33506;BME280;19843;51.040;13.782;2023-05-12T10:24:25;100364.09;;;25.37;29.66
33506;BME280;19843;51.040;13.782;2023-05-12T10:26:54;100356.19;;;25.24;29.46
33506;BME280;19843;51.040;13.782;2023-05-12T10:29:23;100361.31;;;24.10;31.62
33506;BME280;19843;51.040;13.782;2023-05-12T10:31:54;100358.63;;;24.23;31.14
33506;BME280;19843;51.040;13.782;2023-05-12T10:34:28;100356.78;;;24.13;31.04
33506;BME280;19843;51.040;13.782;2023-05-12T10:36:57;100357.97;;;24.59;31.16
33506;BME280;19843;51.040;13.782;2023-05-12T10:39:27;100356.84;;;24.09;31.85
33506;BME280;19843;51.040;13.782;2023-05-12T10:42:01;100359.38;;;24.70;31.25
33506;BME280;19843;51.040;13.782;2023-05-12T10:44:31;100364.81;;;24.65;30.47
33506;BME280;19843;51.040;13.782;2023-05-12T10:46:59;100361.50;;;24.66;30.53
33506;BME280;19843;51.040;13.782;2023-05-12T10:49:33;100363.94;;;24.88;30.90
33506;BME280;19843;51.040;13.782;2023-05-12T10:52:02;100350.44;;;24.68;31.31
33506;BME280;19843;51.040;13.782;2023-05-12T10:54:36;100350.16;;;25.02;31.06
33506;BME280;19843;51.040;13.782;2023-05-12T10:57:12;100353.00;;;25.22;31.15
33506;BME280;19843;51.040;13.782;2023-05-12T10:59:47;100368.69;;;24.74;32.03
33506;BME280;19843;51.040;13.782;2023-05-12T11:02:18;100363.72;;;24.78;32.60
33506;BME280;19843;51.040;13.782;2023-05-12T11:04:48;100352.00;;;25.65;30.51
33506;BME280;19843;51.040;13.782;2023-05-12T11:07:20;100350.88;;;23.76;30.82
33506;BME280;19843;51.040;13.782;2023-05-12T11:09:50;100353.03;;;23.15;32.21
33506;BME280;19843;51.040;13.782;2023-05-12T11:12:26;100360.50;;;23.86;32.63
33506;BME280;19843;51.040;13.782;2023-05-12T11:14:58;100350.03;;;23.80;32.31
33506;BME280;19843;51.040;13.782;2023-05-12T11:17:26;100350.25;;;24.36;32.40
33506;BME280;19843;51.040;13.782;2023-05-12T11:19:54;100361.00;;;23.81;33.14
33506;BME280;19843;51.040;13.782;2023-05-12T11:22:22;100356.16;;;23.78;32.93
33506;BME280;19843;51.040;13.782;2023-05-12T11:24:50;100356.09;;;23.28;33.79
33506;BME280;19843;51.040;13.782;2023-05-12T11:27:20;100358.53;;;22.98;34.40
33506;BME280;19843;51.040;13.782;2023-05-12T11:29:58;100357.56;;;23.12;34.95
33506;BME280;19843;51.040;13.782;2023-05-12T11:32:25;100354.16;;;22.90;36.01
33506;BME280;19843;51.040;13.782;2023-05-12T11:34:53;100362.38;;;23.15;36.57
33506;BME280;19843;51.040;13.782;2023-05-12T11:37:21;100358.69;;;23.18;37.09
33506;BME280;19843;51.040;13.782;2023-05-12T11:39:49;100367.97;;;23.22;37.24
33506;BME280;19843;51.040;13.782;2023-05-12T11:42:18;100364.00;;;22.48;38.52
33506;BME280;19843;51.040;13.782;2023-05-12T11:44:49;100370.13;;;22.81;38.63
33506;BME280;19843;51.040;13.782;2023-05-12T11:47:18;100365.69;;;23.41;37.33
33506;BME280;19843;51.040;13.782;2023-05-12T11:49:47;100362.19;;;24.07;36.61
33506;BME280;19843;51.040;13.782;2023-05-12T11:52:15;100371.84;;;23.63;36.44
33506;BME280;19843;51.040;13.782;2023-05-12T11:54:47;100369.09;;;23.83;36.53
33506;BME280;19843;51.040;13.782;2023-05-12T11:57:23;100365.75;;;22.72;37.93
33506;BME280;19843;51.040;13.782;2023-05-12T11:59:55;100371.31;;;22.45;38.11
33506;BME280;19843;51.040;13.782;2023-05-12T12:02:25;100369.31;;;22.80;37.29
33506;BME280;19843;51.040;13.782;2023-05-12T12:04:53;100373.47;;;23.06;37.44
33506;BME280;19843;51.040;13.782;2023-05-12T12:07:27;100367.47;;;22.25;38.03
33506;BME280;19843;51.040;13.782;2023-05-12T12:09:56;100374.00;;;23.28;37.14
33506;BME280;19843;51.040;13.782;2023-05-12T12:12:23;100381.09;;;22.44;35.51
33506;BME280;19843;51.040;13.782;2023-05-12T12:14:51;100373.94;;;22.67;35.49
33506;BME280;19843;51.040;13.782;2023-05-12T12:17:19;100385.97;;;22.82;36.54
33506;BME280;19843;51.040;13.782;2023-05-12T12:19:55;100383.44;;;22.12;36.48
33506;BME280;19843;51.040;13.782;2023-05-12T12:22:22;100388.03;;;21.98;38.66
33506;BME280;19843;51.040;13.782;2023-05-12T12:24:49;100393.25;;;22.04;38.52
33506;BME280;19843;51.040;13.782;2023-05-12T12:27:17;100389.13;;;22.53;38.37
33506;BME280;19843;51.040;13.782;2023-05-12T12:29:44;100395.50;;;22.64;38.27
33506;BME280;19843;51.040;13.782;2023-05-12T12:32:12;100384.56;;;21.73;39.23
33506;BME280;19843;51.040;13.782;2023-05-12T12:34:39;100393.97;;;22.15;39.35
33506;BME280;19843;51.040;13.782;2023-05-12T12:37:09;100379.78;;;22.15;39.26
33506;BME280;19843;51.040;13.782;2023-05-12T12:39:36;100382.47;;;22.67;38.64
33506;BME280;19843;51.040;13.782;2023-05-12T12:42:04;100393.28;;;22.00;39.15
33506;BME280;19843;51.040;13.782;2023-05-12T12:44:31;100386.75;;;22.48;38.52
33506;BME280;19843;51.040;13.782;2023-05-12T12:46:59;100385.03;;;22.54;37.14